sensor_id;sensor_type;location;lat;lon;timestamp;P1;durP1;ratioP1;P2;durP2;ratioP2
40162;SDS011;25881;47.462;19.304;2023-03-31T00:00:30;39.47;;;28.45;;
40162;SDS011;25881;47.462;19.304;2023-03-31T00:02:59;37.75;;;29.10;;
40162;SDS011;25881;47.462;19.304;2023-03-31T00:05:24;36.40;;;29.25;;
40162;SDS011;25881;47.462;19.304;2023-03-31T00:07:53;45.95;;;31.98;;
40162;SDS011;25881;47.462;19.304;2023-03-31T00:10:19;38.72;;;31.55;;
40162;SDS011;25881;47.462;19.304;2023-03-31T00:12:46;38.63;;;29.27;;
40162;SDS011;25881;47.462;19.304;2023-03-31T00:15:11;40.72;;;31.65;;
40162;SDS011;25881;47.462;19.304;2023-03-31T00:17:37;41.33;;;30.23;;
40162;SDS011;25881;47.462;19.304;2023-03-31T00:20:02;42.43;;;31.73;;
40162;SDS011;25881;47.462;19.304;2023-03-31T00:22:29;34.72;;;27.10;;
40162;SDS011;25881;47.462;19.304;2023-03-31T00:24:55;36.25;;;28.23;;
40162;SDS011;25881;47.462;19.304;2023-03-31T00:27:20;30.60;;;24.70;;
40162;SDS011;25881;47.462;19.304;2023-03-31T00:29:45;39.22;;;28.40;;
40162;SDS011;25881;47.462;19.304;2023-03-31T00:32:12;25.35;;;21.10;;
40162;SDS011;25881;47.462;19.304;2023-03-31T00:34:38;28.55;;;21.52;;
40162;SDS011;25881;47.462;19.304;2023-03-31T00:37:04;26.00;;;20.42;;
40162;SDS011;25881;47.462;19.304;2023-03-31T00:39:30;26.23;;;20.27;;
40162;SDS011;25881;47.462;19.304;2023-03-31T00:42:00;27.05;;;20.88;;
40162;SDS011;25881;47.462;19.304;2023-03-31T00:44:27;27.42;;;19.58;;
40162;SDS011;25881;47.462;19.304;2023-03-31T00:47:15;25.60;;;18.15;;
40162;SDS011;25881;47.462;19.304;2023-03-31T00:52:24;23.73;;;18.77;;
40162;SDS011;25881;47.462;19.304;2023-03-31T00:54:55;25.30;;;16.90;;
40162;SDS011;25881;47.462;19.304;2023-03-31T00:57:23;21.50;;;14.70;;
40162;SDS011;25881;47.462;19.304;2023-03-31T00:59:50;22.38;;;16.00;;
40162;SDS011;25881;47.462;19.304;2023-03-31T01:02:17;21.17;;;15.50;;
40162;SDS011;25881;47.462;19.304;2023-03-31T01:04:50;17.15;;;13.57;;
40162;SDS011;25881;47.462;19.304;2023-03-31T01:07:30;19.98;;;13.80;;
40162;SDS011;25881;47.462;19.304;2023-03-31T01:09:59;20.30;;;14.98;;
40162;SDS011;25881;47.462;19.304;2023-03-31T01:12:25;24.00;;;13.98;;
40162;SDS011;25881;47.462;19.304;2023-03-31T01:14:50;23.85;;;14.80;;
40162;SDS011;25881;47.462;19.304;2023-03-31T01:17:17;24.27;;;15.70;;
40162;SDS011;25881;47.462;19.304;2023-03-31T01:19:55;29.50;;;19.05;;
40162;SDS011;25881;47.462;19.304;2023-03-31T01:24:52;20.07;;;14.17;;
40162;SDS011;25881;47.462;19.304;2023-03-31T01:48:11;21.00;;;13.10;;
40162;SDS011;25881;47.462;19.304;2023-03-31T01:50:50;20.10;;;13.18;;
40162;SDS011;25881;47.462;19.304;2023-03-31T01:55:46;18.25;;;12.18;;
40162;SDS011;25881;47.462;19.304;2023-03-31T01:58:19;17.80;;;12.70;;
40162;SDS011;25881;47.462;19.304;2023-03-31T02:00:50;17.83;;;11.82;;
40162;SDS011;25881;47.462;19.304;2023-03-31T02:03:21;17.15;;;12.30;;
40162;SDS011;25881;47.462;19.304;2023-03-31T02:05:50;17.30;;;12.60;;
40162;SDS011;25881;47.462;19.304;2023-03-31T02:08:21;14.82;;;10.50;;
40162;SDS011;25881;47.462;19.304;2023-03-31T02:10:47;21.17;;;12.98;;
40162;SDS011;25881;47.462;19.304;2023-03-31T02:13:13;15.88;;;11.25;;
40162;SDS011;25881;47.462;19.304;2023-03-31T02:15:40;15.88;;;10.48;;
40162;SDS011;25881;47.462;19.304;2023-03-31T02:18:07;14.50;;;10.80;;
40162;SDS011;25881;47.462;19.304;2023-03-31T02:20:35;19.15;;;11.43;;
40162;SDS011;25881;47.462;19.304;2023-03-31T02:23:01;15.75;;;10.93;;
40162;SDS011;25881;47.462;19.304;2023-03-31T02:25:32;14.52;;;10.00;;
40162;SDS011;25881;47.462;19.304;2023-03-31T02:28:07;17.75;;;11.50;;
40162;SDS011;25881;47.462;19.304;2023-03-31T02:30:39;16.77;;;10.75;;
40162;SDS011;25881;47.462;19.304;2023-03-31T02:33:05;19.20;;;11.07;;
40162;SDS011;25881;47.462;19.304;2023-03-31T02:35:30;16.60;;;10.00;;
40162;SDS011;25881;47.462;19.304;2023-03-31T02:37:58;15.35;;;9.95;;
40162;SDS011;25881;47.462;19.304;2023-03-31T02:40:24;18.77;;;11.63;;
40162;SDS011;25881;47.462;19.304;2023-03-31T02:42:51;18.77;;;11.60;;
40162;SDS011;25881;47.462;19.304;2023-03-31T02:48:01;18.67;;;11.32;;
40162;SDS011;25881;47.462;19.304;2023-03-31T02:50:27;12.00;;;9.77;;
40162;SDS011;25881;47.462;19.304;2023-03-31T02:58:32;15.95;;;10.52;;
40162;SDS011;25881;47.462;19.304;2023-03-31T03:08:40;16.55;;;10.57;;
40162;SDS011;25881;47.462;19.304;2023-03-31T03:11:13;18.07;;;10.27;;
40162;SDS011;25881;47.462;19.304;2023-03-31T03:18:32;13.53;;;8.93;;
40162;SDS011;25881;47.462;19.304;2023-03-31T03:20:57;11.75;;;9.30;;
40162;SDS011;25881;47.462;19.304;2023-03-31T03:23:23;15.43;;;9.00;;
40162;SDS011;25881;47.462;19.304;2023-03-31T03:25:48;12.43;;;9.13;;
40162;SDS011;25881;47.462;19.304;2023-03-31T03:28:13;17.52;;;10.27;;
40162;SDS011;25881;47.462;19.304;2023-03-31T03:30:38;14.30;;;9.43;;
40162;SDS011;25881;47.462;19.304;2023-03-31T03:33:04;13.90;;;9.48;;
40162;SDS011;25881;47.462;19.304;2023-03-31T03:35:31;12.45;;;9.90;;
40162;SDS011;25881;47.462;19.304;2023-03-31T03:37:56;12.63;;;8.63;;
40162;SDS011;25881;47.462;19.304;2023-03-31T03:40:21;17.27;;;11.10;;
40162;SDS011;25881;47.462;19.304;2023-03-31T03:42:47;12.80;;;8.93;;
40162;SDS011;25881;47.462;19.304;2023-03-31T03:45:12;11.20;;;7.83;;
40162;SDS011;25881;47.462;19.304;2023-03-31T03:47:37;16.23;;;10.40;;
40162;SDS011;25881;47.462;19.304;2023-03-31T03:50:03;13.55;;;8.27;;
40162;SDS011;25881;47.462;19.304;2023-03-31T03:52:28;8.75;;;7.55;;
40162;SDS011;25881;47.462;19.304;2023-03-31T03:54:53;9.60;;;7.90;;
40162;SDS011;25881;47.462;19.304;2023-03-31T03:57:19;13.38;;;8.35;;
40162;SDS011;25881;47.462;19.304;2023-03-31T03:59:45;11.23;;;8.07;;
40162;SDS011;25881;47.462;19.304;2023-03-31T04:02:10;12.30;;;8.47;;
40162;SDS011;25881;47.462;19.304;2023-03-31T04:04:35;13.18;;;8.20;;
40162;SDS011;25881;47.462;19.304;2023-03-31T04:07:00;10.97;;;8.13;;
40162;SDS011;25881;47.462;19.304;2023-03-31T04:09:26;13.53;;;7.77;;
40162;SDS011;25881;47.462;19.304;2023-03-31T04:11:51;11.32;;;8.43;;
40162;SDS011;25881;47.462;19.304;2023-03-31T04:14:16;13.13;;;9.30;;
40162;SDS011;25881;47.462;19.304;2023-03-31T04:16:41;11.77;;;8.10;;
40162;SDS011;25881;47.462;19.304;2023-03-31T04:19:07;12.30;;;7.53;;
40162;SDS011;25881;47.462;19.304;2023-03-31T04:21:35;19.73;;;8.27;;
40162;SDS011;25881;47.462;19.304;2023-03-31T04:24:00;9.95;;;6.82;;
40162;SDS011;25881;47.462;19.304;2023-03-31T04:26:29;13.10;;;7.60;;
40162;SDS011;25881;47.462;19.304;2023-03-31T04:28:55;13.77;;;6.80;;
40162;SDS011;25881;47.462;19.304;2023-03-31T04:31:24;9.15;;;6.68;;
40162;SDS011;25881;47.462;19.304;2023-03-31T04:33:50;8.75;;;6.60;;
40162;SDS011;25881;47.462;19.304;2023-03-31T04:36:15;8.98;;;6.97;;
40162;SDS011;25881;47.462;19.304;2023-03-31T04:38:44;9.98;;;7.47;;
40162;SDS011;25881;47.462;19.304;2023-03-31T04:41:15;10.85;;;6.90;;
40162;SDS011;25881;47.462;19.304;2023-03-31T04:43:40;12.32;;;7.20;;
40162;SDS011;25881;47.462;19.304;2023-03-31T04:46:06;11.18;;;6.85;;
40162;SDS011;25881;47.462;19.304;2023-03-31T04:48:31;12.18;;;7.28;;
40162;SDS011;25881;47.462;19.304;2023-03-31T04:50:56;9.33;;;7.17;;
40162;SDS011;25881;47.462;19.304;2023-03-31T04:53:21;9.33;;;7.13;;
40162;SDS011;25881;47.462;19.304;2023-03-31T04:55:49;10.13;;;7.05;;
40162;SDS011;25881;47.462;19.304;2023-03-31T04:58:15;11.55;;;7.30;;
40162;SDS011;25881;47.462;19.304;2023-03-31T05:00:40;8.97;;;7.13;;
40162;SDS011;25881;47.462;19.304;2023-03-31T05:03:05;10.33;;;7.37;;
40162;SDS011;25881;47.462;19.304;2023-03-31T05:05:31;12.13;;;8.50;;
40162;SDS011;25881;47.462;19.304;2023-03-31T05:07:56;11.05;;;8.02;;
40162;SDS011;25881;47.462;19.304;2023-03-31T05:10:21;10.43;;;7.43;;
40162;SDS011;25881;47.462;19.304;2023-03-31T05:12:47;10.60;;;7.37;;
40162;SDS011;25881;47.462;19.304;2023-03-31T05:15:13;12.23;;;7.75;;
40162;SDS011;25881;47.462;19.304;2023-03-31T05:17:38;10.03;;;7.73;;
40162;SDS011;25881;47.462;19.304;2023-03-31T05:20:04;10.13;;;7.95;;
40162;SDS011;25881;47.462;19.304;2023-03-31T05:22:35;12.63;;;8.20;;
40162;SDS011;25881;47.462;19.304;2023-03-31T05:25:01;12.43;;;7.93;;
40162;SDS011;25881;47.462;19.304;2023-03-31T05:27:26;12.10;;;8.20;;
40162;SDS011;25881;47.462;19.304;2023-03-31T05:29:52;12.55;;;7.40;;
40162;SDS011;25881;47.462;19.304;2023-03-31T05:32:17;11.33;;;7.17;;
40162;SDS011;25881;47.462;19.304;2023-03-31T05:34:42;10.27;;;7.93;;
40162;SDS011;25881;47.462;19.304;2023-03-31T05:37:07;14.93;;;7.72;;
40162;SDS011;25881;47.462;19.304;2023-03-31T05:39:33;13.30;;;8.97;;
40162;SDS011;25881;47.462;19.304;2023-03-31T05:41:58;16.05;;;10.02;;
40162;SDS011;25881;47.462;19.304;2023-03-31T05:44:24;13.75;;;9.70;;
40162;SDS011;25881;47.462;19.304;2023-03-31T05:46:51;15.55;;;9.88;;
40162;SDS011;25881;47.462;19.304;2023-03-31T05:49:16;13.88;;;9.68;;
40162;SDS011;25881;47.462;19.304;2023-03-31T05:51:42;16.25;;;10.45;;
40162;SDS011;25881;47.462;19.304;2023-03-31T05:54:07;15.23;;;11.33;;
40162;SDS011;25881;47.462;19.304;2023-03-31T05:56:32;18.10;;;13.57;;
40162;SDS011;25881;47.462;19.304;2023-03-31T05:58:58;20.73;;;13.07;;
40162;SDS011;25881;47.462;19.304;2023-03-31T06:01:24;19.40;;;13.48;;
40162;SDS011;25881;47.462;19.304;2023-03-31T06:03:49;18.45;;;13.13;;
40162;SDS011;25881;47.462;19.304;2023-03-31T06:06:15;22.23;;;15.13;;
40162;SDS011;25881;47.462;19.304;2023-03-31T06:08:44;21.55;;;14.80;;
40162;SDS011;25881;47.462;19.304;2023-03-31T06:11:10;21.02;;;14.10;;
40162;SDS011;25881;47.462;19.304;2023-03-31T06:13:36;24.17;;;14.50;;
40162;SDS011;25881;47.462;19.304;2023-03-31T06:16:02;24.38;;;15.05;;
40162;SDS011;25881;47.462;19.304;2023-03-31T06:18:28;26.50;;;16.30;;
40162;SDS011;25881;47.462;19.304;2023-03-31T06:20:54;23.65;;;16.45;;
40162;SDS011;25881;47.462;19.304;2023-03-31T06:23:20;19.38;;;14.57;;
40162;SDS011;25881;47.462;19.304;2023-03-31T06:25:45;20.83;;;13.77;;
40162;SDS011;25881;47.462;19.304;2023-03-31T06:28:10;21.87;;;16.93;;
40162;SDS011;25881;47.462;19.304;2023-03-31T06:30:36;25.03;;;16.17;;
40162;SDS011;25881;47.462;19.304;2023-03-31T06:33:01;22.43;;;14.80;;
40162;SDS011;25881;47.462;19.304;2023-03-31T06:35:26;18.47;;;14.27;;
40162;SDS011;25881;47.462;19.304;2023-03-31T06:37:51;21.60;;;13.73;;
40162;SDS011;25881;47.462;19.304;2023-03-31T06:40:17;22.63;;;14.33;;
40162;SDS011;25881;47.462;19.304;2023-03-31T06:42:42;17.60;;;13.68;;
40162;SDS011;25881;47.462;19.304;2023-03-31T06:45:07;17.63;;;12.73;;
40162;SDS011;25881;47.462;19.304;2023-03-31T06:47:32;21.92;;;13.60;;
40162;SDS011;25881;47.462;19.304;2023-03-31T06:49:58;16.27;;;12.13;;
40162;SDS011;25881;47.462;19.304;2023-03-31T06:52:23;17.53;;;12.90;;
40162;SDS011;25881;47.462;19.304;2023-03-31T06:54:48;20.65;;;13.75;;
40162;SDS011;25881;47.462;19.304;2023-03-31T06:57:14;18.35;;;11.75;;
40162;SDS011;25881;47.462;19.304;2023-03-31T06:59:39;23.80;;;12.77;;
40162;SDS011;25881;47.462;19.304;2023-03-31T07:02:04;14.43;;;11.60;;
40162;SDS011;25881;47.462;19.304;2023-03-31T07:04:30;20.35;;;12.65;;
40162;SDS011;25881;47.462;19.304;2023-03-31T07:06:57;16.30;;;11.73;;
40162;SDS011;25881;47.462;19.304;2023-03-31T07:09:23;20.63;;;12.32;;
40162;SDS011;25881;47.462;19.304;2023-03-31T07:11:48;19.57;;;11.90;;
40162;SDS011;25881;47.462;19.304;2023-03-31T07:14:13;17.20;;;11.02;;
40162;SDS011;25881;47.462;19.304;2023-03-31T07:16:39;15.15;;;10.50;;
40162;SDS011;25881;47.462;19.304;2023-03-31T07:19:05;14.17;;;10.43;;
40162;SDS011;25881;47.462;19.304;2023-03-31T07:21:30;14.90;;;11.27;;
40162;SDS011;25881;47.462;19.304;2023-03-31T07:23:56;17.27;;;11.70;;
40162;SDS011;25881;47.462;19.304;2023-03-31T07:26:21;15.32;;;10.95;;
40162;SDS011;25881;47.462;19.304;2023-03-31T07:28:46;13.83;;;10.47;;
40162;SDS011;25881;47.462;19.304;2023-03-31T07:31:12;13.55;;;10.07;;
40162;SDS011;25881;47.462;19.304;2023-03-31T07:33:38;15.82;;;9.80;;
40162;SDS011;25881;47.462;19.304;2023-03-31T07:36:04;13.05;;;9.38;;
40162;SDS011;25881;47.462;19.304;2023-03-31T07:38:29;13.77;;;9.50;;
40162;SDS011;25881;47.462;19.304;2023-03-31T07:40:55;13.57;;;9.65;;
40162;SDS011;25881;47.462;19.304;2023-03-31T07:43:20;11.93;;;8.75;;
40162;SDS011;25881;47.462;19.304;2023-03-31T07:45:45;14.43;;;9.37;;
40162;SDS011;25881;47.462;19.304;2023-03-31T07:48:10;11.20;;;8.80;;
40162;SDS011;25881;47.462;19.304;2023-03-31T07:50:36;13.23;;;9.33;;
40162;SDS011;25881;47.462;19.304;2023-03-31T07:53:01;12.83;;;9.23;;
40162;SDS011;25881;47.462;19.304;2023-03-31T07:55:26;14.13;;;9.60;;
40162;SDS011;25881;47.462;19.304;2023-03-31T07:57:51;15.30;;;11.00;;
40162;SDS011;25881;47.462;19.304;2023-03-31T08:00:17;13.88;;;9.70;;
40162;SDS011;25881;47.462;19.304;2023-03-31T08:02:43;15.32;;;9.85;;
40162;SDS011;25881;47.462;19.304;2023-03-31T08:05:09;13.55;;;9.80;;
40162;SDS011;25881;47.462;19.304;2023-03-31T08:07:36;17.35;;;10.35;;
40162;SDS011;25881;47.462;19.304;2023-03-31T08:10:05;14.70;;;10.38;;
40162;SDS011;25881;47.462;19.304;2023-03-31T08:12:31;16.77;;;10.18;;
40162;SDS011;25881;47.462;19.304;2023-03-31T08:14:56;16.40;;;10.83;;
40162;SDS011;25881;47.462;19.304;2023-03-31T08:17:21;13.27;;;10.57;;
40162;SDS011;25881;47.462;19.304;2023-03-31T08:19:47;13.50;;;10.53;;
40162;SDS011;25881;47.462;19.304;2023-03-31T08:22:13;13.75;;;10.27;;
40162;SDS011;25881;47.462;19.304;2023-03-31T08:24:38;16.00;;;10.67;;
40162;SDS011;25881;47.462;19.304;2023-03-31T08:27:04;18.48;;;11.55;;
40162;SDS011;25881;47.462;19.304;2023-03-31T08:29:29;12.10;;;10.47;;
40162;SDS011;25881;47.462;19.304;2023-03-31T08:31:54;16.70;;;11.13;;
40162;SDS011;25881;47.462;19.304;2023-03-31T08:34:20;11.57;;;9.25;;
40162;SDS011;25881;47.462;19.304;2023-03-31T08:36:45;12.27;;;9.37;;
40162;SDS011;25881;47.462;19.304;2023-03-31T08:39:11;14.35;;;8.93;;
40162;SDS011;25881;47.462;19.304;2023-03-31T08:44:07;11.60;;;7.80;;
40162;SDS011;25881;47.462;19.304;2023-03-31T08:46:34;12.43;;;8.15;;
40162;SDS011;25881;47.462;19.304;2023-03-31T08:49:00;11.07;;;7.68;;
40162;SDS011;25881;47.462;19.304;2023-03-31T08:51:27;10.90;;;7.03;;
40162;SDS011;25881;47.462;19.304;2023-03-31T08:54:05;13.20;;;7.00;;
40162;SDS011;25881;47.462;19.304;2023-03-31T08:56:35;10.80;;;7.80;;
40162;SDS011;25881;47.462;19.304;2023-03-31T08:59:03;16.30;;;8.82;;
40162;SDS011;25881;47.462;19.304;2023-03-31T09:01:37;13.63;;;7.97;;
40162;SDS011;25881;47.462;19.304;2023-03-31T09:04:29;13.40;;;9.43;;
40162;SDS011;25881;47.462;19.304;2023-03-31T09:09:48;13.55;;;8.40;;
40162;SDS011;25881;47.462;19.304;2023-03-31T09:12:18;10.68;;;8.27;;
40162;SDS011;25881;47.462;19.304;2023-03-31T09:14:53;9.98;;;7.13;;
40162;SDS011;25881;47.462;19.304;2023-03-31T09:19:52;10.75;;;6.75;;
40162;SDS011;25881;47.462;19.304;2023-03-31T09:22:22;10.18;;;7.10;;
40162;SDS011;25881;47.462;19.304;2023-03-31T09:24:56;13.40;;;6.95;;
40162;SDS011;25881;47.462;19.304;2023-03-31T09:27:23;12.70;;;7.13;;
40162;SDS011;25881;47.462;19.304;2023-03-31T09:32:22;10.05;;;6.00;;
40162;SDS011;25881;47.462;19.304;2023-03-31T09:34:52;10.27;;;5.55;;
40162;SDS011;25881;47.462;19.304;2023-03-31T09:37:17;11.43;;;5.53;;
40162;SDS011;25881;47.462;19.304;2023-03-31T09:39:43;7.97;;;4.73;;
40162;SDS011;25881;47.462;19.304;2023-03-31T09:42:09;10.87;;;5.40;;
40162;SDS011;25881;47.462;19.304;2023-03-31T09:44:37;10.05;;;5.60;;
40162;SDS011;25881;47.462;19.304;2023-03-31T09:47:03;10.05;;;5.35;;
40162;SDS011;25881;47.462;19.304;2023-03-31T09:49:32;8.13;;;5.28;;
40162;SDS011;25881;47.462;19.304;2023-03-31T09:52:02;7.82;;;4.97;;
40162;SDS011;25881;47.462;19.304;2023-03-31T09:54:39;10.20;;;4.50;;
40162;SDS011;25881;47.462;19.304;2023-03-31T09:57:12;8.43;;;4.22;;
40162;SDS011;25881;47.462;19.304;2023-03-31T09:59:38;8.35;;;5.25;;
40162;SDS011;25881;47.462;19.304;2023-03-31T10:02:05;9.27;;;5.80;;
40162;SDS011;25881;47.462;19.304;2023-03-31T10:04:44;8.55;;;4.65;;
40162;SDS011;25881;47.462;19.304;2023-03-31T10:07:10;10.80;;;4.63;;
40162;SDS011;25881;47.462;19.304;2023-03-31T10:09:35;8.50;;;4.72;;
40162;SDS011;25881;47.462;19.304;2023-03-31T10:12:05;11.45;;;5.13;;
40162;SDS011;25881;47.462;19.304;2023-03-31T10:14:41;7.03;;;5.03;;
40162;SDS011;25881;47.462;19.304;2023-03-31T10:17:11;9.55;;;5.25;;
40162;SDS011;25881;47.462;19.304;2023-03-31T10:19:38;6.65;;;4.55;;
40162;SDS011;25881;47.462;19.304;2023-03-31T10:24:41;9.88;;;4.38;;
40162;SDS011;25881;47.462;19.304;2023-03-31T10:27:12;9.32;;;3.55;;
40162;SDS011;25881;47.462;19.304;2023-03-31T10:29:41;7.13;;;3.20;;
40162;SDS011;25881;47.462;19.304;2023-03-31T10:34:36;8.25;;;3.80;;
40162;SDS011;25881;47.462;19.304;2023-03-31T10:37:02;9.88;;;3.92;;
40162;SDS011;25881;47.462;19.304;2023-03-31T10:39:29;7.85;;;3.63;;
40162;SDS011;25881;47.462;19.304;2023-03-31T10:41:56;7.25;;;3.08;;
40162;SDS011;25881;47.462;19.304;2023-03-31T10:47:02;4.80;;;2.50;;
40162;SDS011;25881;47.462;19.304;2023-03-31T10:49:27;8.20;;;3.72;;
40162;SDS011;25881;47.462;19.304;2023-03-31T10:51:57;6.80;;;3.93;;
40162;SDS011;25881;47.462;19.304;2023-03-31T10:54:23;6.32;;;3.13;;
40162;SDS011;25881;47.462;19.304;2023-03-31T10:56:50;6.32;;;3.65;;
40162;SDS011;25881;47.462;19.304;2023-03-31T11:17:28;9.27;;;5.00;;
40162;SDS011;25881;47.462;19.304;2023-03-31T11:46:01;11.32;;;5.57;;
40162;SDS011;25881;47.462;19.304;2023-03-31T11:48:41;7.90;;;4.85;;
40162;SDS011;25881;47.462;19.304;2023-03-31T11:53:53;8.70;;;4.90;;
40162;SDS011;25881;47.462;19.304;2023-03-31T11:56:20;9.73;;;4.72;;
40162;SDS011;25881;47.462;19.304;2023-03-31T11:58:55;6.93;;;4.47;;
40162;SDS011;25881;47.462;19.304;2023-03-31T12:01:24;7.32;;;3.80;;
40162;SDS011;25881;47.462;19.304;2023-03-31T12:06:34;7.00;;;2.97;;
40162;SDS011;25881;47.462;19.304;2023-03-31T12:11:43;7.60;;;3.00;;
40162;SDS011;25881;47.462;19.304;2023-03-31T12:16:39;6.63;;;3.90;;
40162;SDS011;25881;47.462;19.304;2023-03-31T12:19:10;10.20;;;4.22;;
40162;SDS011;25881;47.462;19.304;2023-03-31T12:21:39;8.00;;;4.20;;
40162;SDS011;25881;47.462;19.304;2023-03-31T12:24:09;9.88;;;4.50;;
40162;SDS011;25881;47.462;19.304;2023-03-31T12:26:38;7.97;;;3.72;;
40162;SDS011;25881;47.462;19.304;2023-03-31T12:29:09;7.82;;;4.07;;
40162;SDS011;25881;47.462;19.304;2023-03-31T12:31:36;7.30;;;3.50;;
40162;SDS011;25881;47.462;19.304;2023-03-31T12:34:04;6.35;;;3.03;;
40162;SDS011;25881;47.462;19.304;2023-03-31T12:44:09;7.53;;;3.37;;
40162;SDS011;25881;47.462;19.304;2023-03-31T12:52:35;8.60;;;3.63;;
40162;SDS011;25881;47.462;19.304;2023-03-31T12:57:23;14.18;;;3.90;;
40162;SDS011;25881;47.462;19.304;2023-03-31T13:02:35;8.80;;;3.22;;
40162;SDS011;25881;47.462;19.304;2023-03-31T13:05:39;7.43;;;3.47;;
40162;SDS011;25881;47.462;19.304;2023-03-31T13:07:46;6.43;;;3.20;;
40162;SDS011;25881;47.462;19.304;2023-03-31T13:12:36;6.97;;;3.50;;
40162;SDS011;25881;47.462;19.304;2023-03-31T13:15:02;9.38;;;3.70;;
40162;SDS011;25881;47.462;19.304;2023-03-31T13:17:32;7.82;;;3.97;;
40162;SDS011;25881;47.462;19.304;2023-03-31T13:22:45;8.95;;;4.63;;
40162;SDS011;25881;47.462;19.304;2023-03-31T13:27:37;8.70;;;4.07;;
40162;SDS011;25881;47.462;19.304;2023-03-31T13:33:02;6.95;;;3.42;;
40162;SDS011;25881;47.462;19.304;2023-03-31T13:35:29;10.07;;;3.70;;
40162;SDS011;25881;47.462;19.304;2023-03-31T13:43:15;7.32;;;3.42;;
40162;SDS011;25881;47.462;19.304;2023-03-31T13:48:35;5.53;;;3.47;;
40162;SDS011;25881;47.462;19.304;2023-03-31T13:58:54;7.50;;;3.25;;
40162;SDS011;25881;47.462;19.304;2023-03-31T14:06:39;6.43;;;2.77;;
40162;SDS011;25881;47.462;19.304;2023-03-31T14:09:07;6.57;;;2.97;;
40162;SDS011;25881;47.462;19.304;2023-03-31T14:11:33;4.93;;;2.40;;
40162;SDS011;25881;47.462;19.304;2023-03-31T14:16:24;3.20;;;2.40;;
40162;SDS011;25881;47.462;19.304;2023-03-31T14:18:50;9.68;;;3.03;;
40162;SDS011;25881;47.462;19.304;2023-03-31T14:21:29;7.78;;;3.08;;
40162;SDS011;25881;47.462;19.304;2023-03-31T14:24:03;5.18;;;3.28;;
40162;SDS011;25881;47.462;19.304;2023-03-31T14:26:43;5.35;;;2.53;;
40162;SDS011;25881;47.462;19.304;2023-03-31T14:37:08;7.05;;;3.47;;
40162;SDS011;25881;47.462;19.304;2023-03-31T14:39:37;5.70;;;2.92;;
40162;SDS011;25881;47.462;19.304;2023-03-31T14:42:05;7.13;;;2.58;;
40162;SDS011;25881;47.462;19.304;2023-03-31T14:44:32;8.10;;;3.13;;
40162;SDS011;25881;47.462;19.304;2023-03-31T14:46:58;6.82;;;2.80;;
40162;SDS011;25881;47.462;19.304;2023-03-31T14:49:24;5.13;;;3.05;;
40162;SDS011;25881;47.462;19.304;2023-03-31T14:51:52;8.37;;;3.77;;
40162;SDS011;25881;47.462;19.304;2023-03-31T14:54:18;5.72;;;2.50;;
40162;SDS011;25881;47.462;19.304;2023-03-31T14:56:44;7.18;;;2.97;;
40162;SDS011;25881;47.462;19.304;2023-03-31T14:59:09;7.90;;;2.88;;
40162;SDS011;25881;47.462;19.304;2023-03-31T15:01:35;6.35;;;2.95;;
40162;SDS011;25881;47.462;19.304;2023-03-31T15:04:06;6.60;;;2.83;;
40162;SDS011;25881;47.462;19.304;2023-03-31T15:06:33;7.13;;;2.88;;
40162;SDS011;25881;47.462;19.304;2023-03-31T15:09:00;7.90;;;2.75;;
40162;SDS011;25881;47.462;19.304;2023-03-31T15:11:26;5.65;;;3.25;;
40162;SDS011;25881;47.462;19.304;2023-03-31T15:13:52;8.70;;;2.80;;
40162;SDS011;25881;47.462;19.304;2023-03-31T15:16:35;5.68;;;2.95;;
40162;SDS011;25881;47.462;19.304;2023-03-31T15:21:37;10.23;;;3.35;;
40162;SDS011;25881;47.462;19.304;2023-03-31T15:24:03;10.75;;;3.15;;
40162;SDS011;25881;47.462;19.304;2023-03-31T15:26:30;7.88;;;2.70;;
40162;SDS011;25881;47.462;19.304;2023-03-31T15:29:02;7.00;;;2.83;;
40162;SDS011;25881;47.462;19.304;2023-03-31T15:31:30;10.10;;;3.03;;
40162;SDS011;25881;47.462;19.304;2023-03-31T15:33:56;8.23;;;2.72;;
40162;SDS011;25881;47.462;19.304;2023-03-31T15:36:21;7.03;;;2.73;;
40162;SDS011;25881;47.462;19.304;2023-03-31T15:38:52;6.20;;;2.83;;
40162;SDS011;25881;47.462;19.304;2023-03-31T15:41:19;11.35;;;3.10;;
40162;SDS011;25881;47.462;19.304;2023-03-31T15:43:47;12.18;;;3.60;;
40162;SDS011;25881;47.462;19.304;2023-03-31T15:46:18;10.35;;;2.95;;
40162;SDS011;25881;47.462;19.304;2023-03-31T15:48:48;6.72;;;3.10;;
40162;SDS011;25881;47.462;19.304;2023-03-31T15:51:17;10.88;;;3.22;;
40162;SDS011;25881;47.462;19.304;2023-03-31T15:53:44;7.40;;;3.40;;
40162;SDS011;25881;47.462;19.304;2023-03-31T15:56:29;9.52;;;3.17;;
40162;SDS011;25881;47.462;19.304;2023-03-31T15:58:59;11.50;;;3.30;;
40162;SDS011;25881;47.462;19.304;2023-03-31T16:01:29;8.32;;;2.92;;
40162;SDS011;25881;47.462;19.304;2023-03-31T16:03:57;5.65;;;3.10;;
40162;SDS011;25881;47.462;19.304;2023-03-31T16:06:40;8.35;;;2.47;;
40162;SDS011;25881;47.462;19.304;2023-03-31T16:09:08;5.85;;;2.53;;
40162;SDS011;25881;47.462;19.304;2023-03-31T16:11:39;8.20;;;2.60;;
40162;SDS011;25881;47.462;19.304;2023-03-31T16:14:28;8.40;;;2.72;;
40162;SDS011;25881;47.462;19.304;2023-03-31T16:16:53;6.07;;;3.25;;
40162;SDS011;25881;47.462;19.304;2023-03-31T16:19:20;7.43;;;2.78;;
40162;SDS011;25881;47.462;19.304;2023-03-31T16:21:47;7.95;;;2.67;;
40162;SDS011;25881;47.462;19.304;2023-03-31T16:24:16;8.48;;;2.80;;
40162;SDS011;25881;47.462;19.304;2023-03-31T16:26:42;7.75;;;2.38;;
40162;SDS011;25881;47.462;19.304;2023-03-31T16:29:07;5.18;;;2.40;;
40162;SDS011;25881;47.462;19.304;2023-03-31T16:31:36;8.30;;;2.10;;
40162;SDS011;25881;47.462;19.304;2023-03-31T16:34:04;4.07;;;1.73;;
40162;SDS011;25881;47.462;19.304;2023-03-31T16:36:30;6.32;;;1.95;;
40162;SDS011;25881;47.462;19.304;2023-03-31T16:38:56;9.02;;;2.33;;
40162;SDS011;25881;47.462;19.304;2023-03-31T16:41:23;4.80;;;2.30;;
40162;SDS011;25881;47.462;19.304;2023-03-31T16:43:48;4.93;;;1.95;;
40162;SDS011;25881;47.462;19.304;2023-03-31T16:46:16;7.73;;;2.20;;
40162;SDS011;25881;47.462;19.304;2023-03-31T16:48:42;4.47;;;2.00;;
40162;SDS011;25881;47.462;19.304;2023-03-31T16:51:07;3.83;;;2.23;;
40162;SDS011;25881;47.462;19.304;2023-03-31T16:53:33;7.45;;;2.40;;
40162;SDS011;25881;47.462;19.304;2023-03-31T16:56:00;4.20;;;2.70;;
40162;SDS011;25881;47.462;19.304;2023-03-31T16:58:25;5.63;;;2.53;;
40162;SDS011;25881;47.462;19.304;2023-03-31T17:00:53;6.10;;;2.50;;
40162;SDS011;25881;47.462;19.304;2023-03-31T17:03:19;8.45;;;2.50;;
40162;SDS011;25881;47.462;19.304;2023-03-31T17:05:46;4.45;;;2.35;;
40162;SDS011;25881;47.462;19.304;2023-03-31T17:08:12;10.57;;;3.30;;
40162;SDS011;25881;47.462;19.304;2023-03-31T17:10:38;6.70;;;2.80;;
40162;SDS011;25881;47.462;19.304;2023-03-31T17:13:03;4.85;;;2.50;;
40162;SDS011;25881;47.462;19.304;2023-03-31T17:15:28;4.60;;;2.95;;
40162;SDS011;25881;47.462;19.304;2023-03-31T17:17:54;4.95;;;2.63;;
40162;SDS011;25881;47.462;19.304;2023-03-31T17:20:20;4.95;;;2.60;;
40162;SDS011;25881;47.462;19.304;2023-03-31T17:22:46;6.63;;;2.65;;
40162;SDS011;25881;47.462;19.304;2023-03-31T17:25:11;4.13;;;2.15;;
40162;SDS011;25881;47.462;19.304;2023-03-31T17:27:37;6.97;;;2.72;;